createdAt,value
2023-01-19T00:00:55.913Z,26.00
2023-01-19T00:03:22.855Z,26.17
2023-01-19T00:05:49.874Z,25.48
2023-01-19T00:08:17.762Z,25.80
2023-01-19T00:10:51.213Z,25.33
2023-01-19T00:13:18.210Z,26.85
2023-01-19T00:15:45.620Z,30.98
2023-01-19T00:18:12.964Z,27.52
2023-01-19T00:20:40.837Z,31.08
2023-01-19T00:23:08.236Z,30.15
2023-01-19T00:25:36.490Z,30.75
2023-01-19T00:28:03.584Z,29.88
2023-01-19T00:30:30.661Z,30.08
2023-01-19T00:32:58.471Z,35.20
2023-01-19T00:35:25.737Z,31.40
2023-01-19T00:37:52.760Z,40.78
2023-01-19T00:40:19.852Z,34.35
2023-01-19T00:42:48.452Z,35.72
2023-01-19T00:45:19.920Z,33.83
2023-01-19T00:47:49.426Z,34.58
2023-01-19T00:50:17.646Z,34.88
2023-01-19T00:52:45.429Z,34.85
2023-01-19T00:55:15.357Z,32.22
2023-01-19T00:57:43.435Z,31.33
2023-01-19T01:00:15.027Z,32.15
2023-01-19T01:02:44.670Z,34.70
2023-01-19T01:05:13.140Z,29.58
2023-01-19T01:07:41.714Z,33.20
2023-01-19T01:10:21.453Z,36.28
2023-01-19T01:12:55.634Z,31.30
2023-01-19T01:15:26.962Z,30.25
2023-01-19T01:17:54.406Z,34.30
2023-01-19T01:20:26.999Z,30.67
2023-01-19T01:22:55.420Z,30.00
2023-01-19T01:25:24.960Z,24.40
2023-01-19T01:27:52.543Z,30.23
2023-01-19T01:30:20.309Z,29.67
2023-01-19T01:32:47.215Z,29.40
2023-01-19T01:35:14.648Z,27.92
2023-01-19T01:37:42.906Z,29.77
2023-01-19T01:40:14.161Z,32.13
2023-01-19T01:42:42.579Z,29.08
2023-01-19T01:45:36.024Z,29.08
2023-01-19T01:48:22.295Z,27.05
2023-01-19T01:51:18.507Z,27.88
2023-01-19T01:53:50.046Z,30.85
2023-01-19T01:56:27.680Z,30.60
2023-01-19T01:58:54.812Z,28.63
2023-01-19T02:01:40.953Z,31.13
2023-01-19T02:04:08.058Z,32.95
2023-01-19T02:06:53.952Z,29.95
2023-01-19T02:09:40.972Z,27.50
2023-01-19T02:12:26.407Z,32.33
2023-01-19T02:14:55.502Z,28.95
2023-01-19T02:17:22.687Z,29.27
2023-01-19T02:19:49.715Z,32.17
2023-01-19T02:22:31.878Z,30.20
2023-01-19T02:24:58.951Z,31.00
2023-01-19T02:27:25.955Z,33.45
2023-01-19T02:29:53.296Z,35.55
2023-01-19T02:32:20.251Z,49.25
2023-01-19T02:34:47.178Z,36.67
2023-01-19T02:37:18.438Z,37.40
2023-01-19T02:40:01.708Z,41.85
2023-01-19T02:42:44.474Z,37.70
2023-01-19T02:45:19.672Z,30.05
2023-01-19T02:47:51.447Z,30.75
2023-01-19T02:50:39.041Z,33.28
2023-01-19T02:53:56.622Z,31.67
2023-01-19T02:56:37.948Z,28.52
2023-01-19T02:59:24.856Z,29.35
2023-01-19T03:02:12.913Z,30.15
2023-01-19T03:04:59.419Z,30.33
2023-01-19T03:07:47.277Z,31.05
2023-01-19T03:11:00.563Z,29.65
2023-01-19T03:13:54.071Z,30.05
2023-01-19T03:16:25.208Z,35.70
2023-01-19T03:19:05.663Z,32.95
2023-01-19T03:21:37.317Z,34.58
2023-01-19T03:24:08.645Z,35.13
2023-01-19T03:26:44.013Z,35.30
2023-01-19T03:29:15.387Z,35.45
2023-01-19T03:31:47.277Z,32.15
2023-01-19T03:34:17.325Z,32.08
2023-01-19T03:36:51.381Z,29.02
2023-01-19T03:39:24.130Z,36.47
2023-01-19T03:41:57.513Z,32.78
2023-01-19T03:44:29.149Z,31.25
2023-01-19T03:46:59.101Z,34.55
2023-01-19T03:49:26.683Z,32.53
2023-01-19T03:51:58.859Z,30.38
2023-01-19T03:54:26.659Z,33.67
2023-01-19T03:56:54.043Z,30.52
2023-01-19T03:59:22.106Z,30.05
2023-01-19T04:01:49.634Z,30.35
2023-01-19T04:04:16.856Z,32.40
2023-01-19T04:06:44.194Z,30.80
2023-01-19T04:09:11.178Z,28.27
2023-01-19T04:11:39.229Z,26.48
2023-01-19T04:14:06.248Z,29.65
2023-01-19T04:16:33.086Z,28.85
2023-01-19T04:19:00.001Z,33.28
2023-01-19T04:21:26.877Z,32.35
2023-01-19T04:23:54.226Z,35.10
2023-01-19T04:26:21.141Z,32.92
2023-01-19T04:28:47.997Z,33.05
2023-01-19T04:31:14.986Z,31.35
2023-01-19T04:33:41.956Z,32.63
2023-01-19T04:36:09.072Z,29.70
2023-01-19T04:38:36.084Z,29.27
2023-01-19T04:41:03.030Z,33.33
2023-01-19T04:43:30.110Z,32.28
2023-01-19T04:45:57.045Z,30.48
2023-01-19T04:48:23.931Z,31.42
2023-01-19T04:50:52.550Z,35.00
2023-01-19T04:53:19.551Z,32.35
2023-01-19T04:55:46.809Z,35.03
2023-01-19T04:58:13.907Z,33.83
2023-01-19T05:00:40.743Z,30.10
2023-01-19T05:03:07.882Z,29.10
2023-01-19T05:05:34.959Z,30.85
2023-01-19T05:08:01.845Z,34.67
2023-01-19T05:10:29.109Z,31.20
2023-01-19T05:12:56.071Z,26.45
2023-01-19T05:15:23.628Z,29.63
2023-01-19T05:17:51.009Z,30.90
2023-01-19T05:20:18.226Z,28.45
2023-01-19T05:22:53.348Z,28.50
2023-01-19T05:25:20.551Z,35.58
2023-01-19T05:27:48.062Z,33.92
2023-01-19T05:30:15.384Z,31.45
2023-01-19T05:32:42.475Z,33.53
2023-01-19T05:35:13.492Z,27.60
2023-01-19T05:37:41.008Z,35.67
2023-01-19T05:40:09.394Z,48.95
2023-01-19T05:42:37.200Z,39.78
2023-01-19T05:45:05.783Z,36.38
2023-01-19T05:47:32.630Z,35.90
2023-01-19T05:49:59.479Z,31.60
2023-01-19T05:52:26.352Z,31.67
2023-01-19T05:54:55.177Z,31.75
2023-01-19T05:57:23.145Z,36.05
2023-01-19T05:59:50.080Z,36.60
2023-01-19T06:02:17.245Z,38.85
2023-01-19T06:04:44.857Z,37.70
2023-01-19T06:07:11.863Z,39.13
2023-01-19T06:09:38.737Z,37.97
2023-01-19T06:12:06.333Z,33.35
2023-01-19T06:14:33.275Z,35.55
2023-01-19T06:17:00.110Z,35.95
2023-01-19T06:19:27.076Z,31.20
2023-01-19T06:21:53.931Z,32.35
2023-01-19T06:24:20.869Z,32.63
2023-01-19T06:26:47.761Z,32.22
2023-01-19T06:29:15.193Z,32.78
2023-01-19T06:31:42.351Z,31.95
2023-01-19T06:34:10.207Z,31.25
2023-01-19T06:36:37.369Z,34.25
2023-01-19T06:39:06.012Z,33.58
2023-01-19T06:41:33.918Z,32.65
2023-01-19T06:44:01.376Z,33.78
2023-01-19T06:46:29.033Z,63.70
2023-01-19T06:48:56.260Z,83.22
2023-01-19T06:51:23.927Z,71.72
2023-01-19T06:53:50.970Z,67.18
2023-01-19T06:56:17.921Z,61.05
2023-01-19T06:58:48.282Z,66.18
2023-01-19T07:01:15.596Z,64.18
2023-01-19T07:03:42.631Z,62.65
2023-01-19T07:06:09.888Z,64.50
2023-01-19T07:08:37.877Z,65.05
2023-01-19T07:11:24.948Z,64.03
2023-01-19T07:13:58.499Z,60.40
2023-01-19T07:16:25.573Z,63.17
2023-01-19T07:18:52.782Z,67.55
2023-01-19T07:21:19.827Z,66.18
2023-01-19T07:23:53.489Z,65.55
2023-01-19T07:26:22.190Z,70.90
2023-01-19T07:28:49.650Z,67.32
2023-01-19T07:31:18.020Z,64.60
2023-01-19T07:33:46.002Z,61.80
2023-01-19T07:36:13.699Z,64.47
2023-01-19T07:38:40.611Z,52.70
2023-01-19T07:41:10.016Z,59.50
2023-01-19T07:43:37.045Z,59.35
2023-01-19T07:46:06.556Z,56.20
2023-01-19T07:48:33.819Z,54.72
2023-01-19T07:51:05.428Z,52.85
2023-01-19T07:53:32.892Z,49.13
2023-01-19T07:56:00.185Z,53.53
2023-01-19T07:58:27.567Z,43.28
2023-01-19T08:00:54.784Z,45.70
2023-01-19T08:03:21.918Z,54.65
2023-01-19T08:05:53.552Z,42.55
2023-01-19T08:08:20.775Z,38.42
2023-01-19T08:10:51.494Z,43.75
2023-01-19T08:13:18.781Z,42.10
2023-01-19T08:15:49.288Z,61.10
2023-01-19T08:18:16.565Z,74.47
2023-01-19T08:20:43.710Z,72.88
2023-01-19T08:23:10.871Z,52.03
2023-01-19T08:25:44.363Z,42.03
2023-01-19T08:28:16.128Z,40.25
2023-01-19T08:30:45.004Z,33.80
2023-01-19T08:33:13.328Z,45.42
2023-01-19T08:35:43.439Z,41.38
2023-01-19T08:38:10.893Z,42.72
2023-01-19T08:40:40.235Z,45.25
2023-01-19T08:43:16.353Z,42.50
2023-01-19T08:45:51.863Z,39.13
2023-01-19T08:48:22.430Z,46.03
2023-01-19T08:50:54.024Z,40.08
2023-01-19T08:53:23.614Z,45.42
2023-01-19T08:55:57.376Z,46.22
2023-01-19T08:58:24.343Z,42.72
2023-01-19T09:00:52.635Z,53.45
2023-01-19T09:03:22.629Z,55.65
2023-01-19T09:05:50.425Z,49.75
2023-01-19T09:08:18.124Z,47.70
2023-01-19T09:10:49.316Z,48.70
2023-01-19T09:13:17.597Z,47.70
2023-01-19T09:15:45.430Z,44.25
2023-01-19T09:18:21.175Z,46.85
2023-01-19T09:20:50.765Z,45.35
2023-01-19T09:23:20.388Z,36.17
2023-01-19T09:25:48.047Z,34.03
2023-01-19T09:28:17.646Z,39.80
2023-01-19T09:30:45.311Z,71.38
2023-01-19T09:33:17.817Z,51.00
2023-01-19T09:35:47.166Z,42.28
2023-01-19T09:38:19.795Z,40.83
2023-01-19T09:40:59.432Z,47.50
2023-01-19T09:43:47.747Z,44.67
2023-01-19T09:46:25.249Z,41.90
2023-01-19T09:48:58.469Z,39.58
2023-01-19T09:51:36.157Z,37.88
2023-01-19T09:54:22.020Z,60.30
2023-01-19T09:56:52.448Z,57.70
2023-01-19T09:59:31.859Z,74.57
2023-01-19T10:02:21.727Z,63.20
2023-01-19T10:05:00.653Z,54.20
2023-01-19T10:08:08.324Z,45.85
2023-01-19T10:10:37.873Z,47.22
2023-01-19T10:13:47.068Z,46.10
2023-01-19T10:16:22.745Z,46.33
2023-01-19T10:18:54.024Z,64.47
2023-01-19T10:21:31.370Z,64.28
2023-01-19T10:24:18.356Z,61.30
2023-01-19T10:26:54.934Z,67.85
2023-01-19T10:29:28.225Z,56.17
2023-01-19T10:32:27.151Z,50.92
2023-01-19T10:34:55.731Z,44.30
2023-01-19T10:37:37.930Z,45.72
2023-01-19T10:40:10.554Z,47.37
2023-01-19T10:42:40.565Z,52.53
2023-01-19T10:45:30.048Z,59.38
2023-01-19T10:48:07.193Z,64.13
2023-01-19T10:50:39.843Z,58.80
2023-01-19T10:53:20.771Z,55.50
2023-01-19T10:55:48.140Z,44.25
2023-01-19T10:58:35.156Z,44.22
2023-01-19T11:01:23.087Z,40.92
2023-01-19T11:03:50.971Z,41.17
2023-01-19T11:06:28.139Z,42.40
2023-01-19T11:09:21.158Z,44.88
2023-01-19T11:11:52.261Z,49.78
2023-01-19T11:14:23.502Z,52.88
2023-01-19T11:16:56.061Z,57.15
2023-01-19T11:19:33.244Z,52.63
2023-01-19T11:22:33.784Z,54.20
2023-01-19T11:25:04.849Z,58.05
2023-01-19T11:27:37.000Z,52.65
2023-01-19T11:30:16.890Z,54.40
2023-01-19T11:32:43.845Z,57.45
2023-01-19T11:35:36.664Z,56.05
2023-01-19T11:38:12.538Z,52.17
2023-01-19T11:40:46.375Z,46.88
2023-01-19T11:43:13.960Z,47.08
2023-01-19T11:45:41.529Z,44.08
2023-01-19T11:48:23.707Z,41.38
2023-01-19T11:50:51.281Z,40.38
2023-01-19T11:53:29.242Z,34.97
2023-01-19T11:56:09.895Z,35.80
2023-01-19T11:58:44.439Z,38.88
2023-01-19T12:01:27.349Z,35.67
2023-01-19T12:04:17.376Z,79.28
2023-01-19T12:06:53.154Z,43.22
2023-01-19T12:09:27.440Z,30.50
2023-01-19T12:12:32.130Z,30.73
2023-01-19T12:15:38.803Z,39.60
2023-01-19T12:18:13.688Z,48.25
2023-01-19T12:20:47.069Z,38.13
2023-01-19T12:23:55.491Z,27.52
2023-01-19T12:26:40.851Z,29.40
2023-01-19T12:29:17.503Z,27.23
2023-01-19T12:31:44.564Z,32.25
2023-01-19T12:34:46.601Z,29.75
2023-01-19T12:37:31.434Z,26.00
2023-01-19T12:40:18.420Z,29.58
2023-01-19T12:42:51.824Z,31.02
2023-01-19T12:45:25.612Z,33.00
2023-01-19T12:47:56.489Z,35.05
2023-01-19T12:50:29.615Z,40.35
2023-01-19T12:53:02.658Z,53.38
2023-01-19T12:55:46.487Z,46.58
2023-01-19T12:58:23.423Z,58.75
2023-01-19T13:01:19.151Z,44.60
2023-01-19T13:04:01.940Z,68.53
2023-01-19T13:06:47.182Z,52.67
2023-01-19T13:09:33.322Z,35.80
2023-01-19T13:12:15.148Z,61.78
2023-01-19T13:14:43.744Z,59.17
2023-01-19T13:17:31.588Z,67.63
2023-01-19T13:20:27.478Z,62.90
2023-01-19T13:23:46.507Z,82.70
2023-01-19T13:26:17.654Z,70.15
2023-01-19T13:28:49.903Z,81.93
2023-01-19T13:31:18.249Z,74.22
2023-01-19T13:33:56.787Z,91.80
2023-01-19T13:36:38.638Z,84.13
2023-01-19T13:39:16.534Z,121.30
2023-01-19T13:41:46.639Z,88.13
2023-01-19T13:44:33.102Z,81.35
2023-01-19T13:47:03.699Z,92.65
2023-01-19T13:49:41.505Z,76.43
2023-01-19T13:52:22.972Z,66.30
2023-01-19T13:55:02.480Z,85.22
2023-01-19T13:57:32.713Z,77.38
2023-01-19T14:00:06.582Z,78.05
2023-01-19T14:02:34.145Z,71.40
2023-01-19T14:05:42.370Z,81.10
2023-01-19T14:08:11.256Z,62.95
2023-01-19T14:11:02.430Z,65.07
2023-01-19T14:13:33.638Z,60.88
2023-01-19T14:16:08.478Z,68.47
2023-01-19T14:18:36.684Z,68.65
2023-01-19T14:21:09.780Z,67.15
2023-01-19T14:26:49.393Z,64.35
2023-01-19T14:29:27.666Z,63.38
2023-01-19T14:32:00.565Z,68.22
2023-01-19T14:34:39.129Z,67.43
2023-01-19T14:37:22.315Z,66.25
2023-01-19T14:42:27.751Z,72.45
2023-01-19T14:44:59.431Z,70.38
2023-01-19T14:47:39.671Z,72.63
2023-01-19T14:50:22.288Z,69.22
2023-01-19T14:53:07.411Z,68.15
2023-01-19T14:55:57.249Z,68.68
2023-01-19T14:58:27.540Z,72.32
2023-01-19T15:00:55.819Z,71.00
2023-01-19T15:03:31.910Z,77.68
2023-01-19T15:06:20.245Z,69.95
2023-01-19T15:08:48.859Z,72.32
2023-01-19T15:11:24.308Z,71.88
2023-01-19T15:13:51.724Z,75.20
2023-01-19T15:16:19.417Z,74.93
2023-01-19T15:18:46.387Z,74.88
2023-01-19T15:21:23.661Z,78.65
2023-01-19T15:23:50.766Z,75.28
2023-01-19T15:26:21.530Z,77.00
2023-01-19T15:28:49.479Z,82.82
2023-01-19T15:31:23.670Z,84.00
2023-01-19T15:33:50.612Z,77.63
2023-01-19T15:36:24.683Z,76.75
2023-01-19T15:59:54.518Z,82.70
2023-01-19T16:02:21.615Z,77.85
2023-01-19T16:04:50.175Z,80.45
2023-01-19T16:07:17.036Z,84.80
2023-01-19T16:09:43.907Z,90.00
2023-01-19T16:12:10.783Z,101.28
2023-01-19T16:14:37.606Z,99.57
2023-01-19T16:17:05.836Z,97.80
2023-01-19T16:19:32.761Z,93.15
2023-01-19T16:21:59.794Z,83.80
2023-01-19T16:24:26.617Z,81.07
2023-01-19T16:26:53.572Z,82.97
2023-01-19T16:29:21.147Z,85.88
2023-01-19T16:31:48.148Z,88.65
2023-01-19T16:34:15.104Z,86.93
2023-01-19T16:36:42.924Z,90.20
2023-01-19T16:39:16.196Z,87.22
2023-01-19T16:41:45.390Z,82.50
2023-01-19T16:44:15.089Z,80.28
2023-01-19T16:46:45.883Z,81.10
2023-01-19T16:49:21.270Z,77.93
2023-01-19T16:51:49.246Z,83.25
2023-01-19T16:54:21.624Z,75.45
2023-01-19T16:56:49.769Z,74.07
2023-01-19T16:59:18.083Z,84.85
2023-01-19T17:01:45.911Z,79.88
2023-01-19T17:04:14.139Z,74.53
2023-01-19T17:06:41.314Z,72.65
2023-01-19T17:09:11.957Z,74.10
2023-01-19T17:11:42.710Z,68.75
2023-01-19T17:14:16.653Z,69.30
2023-01-19T17:16:44.425Z,70.18
2023-01-19T17:19:17.653Z,67.90
2023-01-19T17:21:48.779Z,69.13
2023-01-19T17:24:17.006Z,68.70
2023-01-19T17:26:48.630Z,74.03
2023-01-19T17:29:16.899Z,68.90
2023-01-19T17:31:44.541Z,66.00
2023-01-19T17:34:11.635Z,67.43
2023-01-19T17:36:40.998Z,72.93
2023-01-19T17:39:14.625Z,67.15
2023-01-19T17:41:41.679Z,72.43
2023-01-19T17:44:10.775Z,81.55
2023-01-19T17:46:38.997Z,82.80
2023-01-19T17:49:07.923Z,86.57
2023-01-19T17:51:35.811Z,89.40
2023-01-19T17:54:04.112Z,85.32
2023-01-19T17:56:36.777Z,89.90
2023-01-19T17:59:07.919Z,103.18
2023-01-19T18:01:40.038Z,106.10
2023-01-19T18:04:09.356Z,112.53
2023-01-19T18:06:37.963Z,121.40
2023-01-19T18:09:07.609Z,130.50
2023-01-19T18:11:35.766Z,152.00
2023-01-19T18:14:02.936Z,123.72
2023-01-19T18:16:30.833Z,129.18
2023-01-19T18:18:58.328Z,133.70
2023-01-19T18:21:28.303Z,135.75
2023-01-19T18:24:04.657Z,125.13
2023-01-19T18:26:33.896Z,122.65
2023-01-19T18:29:02.056Z,126.45
2023-01-19T18:31:29.507Z,141.10
2023-01-19T18:33:56.927Z,183.95
2023-01-19T18:36:23.876Z,202.23
2023-01-19T18:38:51.375Z,202.98
2023-01-19T18:41:21.638Z,198.80
2023-01-19T18:43:49.272Z,182.13
2023-01-19T18:46:16.861Z,181.07
2023-01-19T18:48:44.567Z,191.65
2023-01-19T18:51:14.977Z,197.82
2023-01-19T18:53:43.756Z,177.90
2023-01-19T18:56:16.081Z,172.82
2023-01-19T18:58:44.238Z,180.13
2023-01-19T19:01:37.986Z,175.18
2023-01-19T19:04:05.699Z,151.43
2023-01-19T19:06:32.672Z,160.23
2023-01-19T19:09:00.722Z,166.48
2023-01-19T19:11:28.547Z,179.35
2023-01-19T19:14:02.409Z,168.13
2023-01-19T19:16:31.672Z,171.18
2023-01-19T19:19:00.444Z,171.68
2023-01-19T19:21:27.944Z,168.00
2023-01-19T19:23:57.663Z,199.85
2023-01-19T19:26:28.373Z,171.52
2023-01-19T19:28:55.688Z,162.82
2023-01-19T19:31:26.044Z,154.70
2023-01-19T19:33:56.952Z,157.70
2023-01-19T19:36:25.922Z,150.52
2023-01-19T19:38:53.689Z,156.27
2023-01-19T19:41:24.538Z,147.10
2023-01-19T19:43:51.557Z,151.40
2023-01-19T19:46:21.238Z,150.32
2023-01-19T19:48:49.350Z,143.20
2023-01-19T19:51:23.462Z,157.30
2023-01-19T19:53:52.487Z,140.55
2023-01-19T19:56:23.054Z,143.55
2023-01-19T19:58:52.002Z,147.73
2023-01-19T20:01:27.239Z,142.32
2023-01-19T20:03:55.751Z,133.52
2023-01-19T20:06:26.365Z,167.88
2023-01-19T20:08:56.278Z,138.07
2023-01-19T20:11:27.729Z,131.25
2023-01-19T20:13:54.875Z,115.78
2023-01-19T20:16:23.715Z,140.98
2023-01-19T20:18:54.379Z,131.85
2023-01-19T20:21:26.410Z,134.10
2023-01-19T20:23:55.787Z,105.03
2023-01-19T20:26:27.880Z,127.45
2023-01-19T20:28:59.681Z,126.60
2023-01-19T20:31:37.333Z,127.32
2023-01-19T20:34:08.257Z,142.82
2023-01-19T20:36:36.693Z,187.77
2023-01-19T20:39:10.117Z,125.30
2023-01-19T20:41:43.862Z,96.68
2023-01-19T20:44:18.805Z,96.32
2023-01-19T20:46:46.385Z,90.50
2023-01-19T20:49:14.217Z,79.30
2023-01-19T20:51:43.553Z,73.25
2023-01-19T20:54:17.201Z,63.75
2023-01-19T20:56:45.179Z,62.95
2023-01-19T20:59:13.369Z,84.28
2023-01-19T21:01:41.719Z,61.85
2023-01-19T21:04:09.571Z,58.38
2023-01-19T21:06:38.293Z,58.13
2023-01-19T21:09:08.319Z,54.33
2023-01-19T21:11:37.776Z,56.38
2023-01-19T21:14:05.894Z,52.53
2023-01-19T21:16:35.191Z,50.45
2023-01-19T21:19:02.652Z,47.28
2023-01-19T21:21:31.512Z,44.28
2023-01-19T21:24:03.588Z,44.45
2023-01-19T21:26:33.211Z,39.13
2023-01-19T21:29:02.358Z,46.83
2023-01-19T21:31:29.809Z,44.67
2023-01-19T21:33:57.808Z,42.33
2023-01-19T21:36:25.793Z,36.00
2023-01-19T21:38:55.416Z,44.75
2023-01-19T21:41:22.915Z,87.32
2023-01-19T21:43:49.828Z,75.68
2023-01-19T21:46:20.773Z,51.13
2023-01-19T21:48:48.452Z,57.75
2023-01-19T21:51:16.435Z,48.47
2023-01-19T21:53:43.951Z,46.45
2023-01-19T21:56:11.554Z,47.58
2023-01-19T21:58:39.068Z,47.47
2023-01-19T22:01:13.714Z,36.95
2023-01-19T22:03:41.953Z,38.33
2023-01-19T22:06:14.305Z,36.70
2023-01-19T22:08:42.488Z,38.70
2023-01-19T22:11:12.490Z,37.00
2023-01-19T22:13:40.463Z,32.08
2023-01-19T22:16:15.170Z,38.53
2023-01-19T22:18:45.931Z,37.08
2023-01-19T22:21:17.264Z,34.40
2023-01-19T22:23:44.474Z,33.10
2023-01-19T22:26:12.230Z,30.05
2023-01-19T22:28:39.523Z,36.17
2023-01-19T22:31:13.547Z,32.55
2023-01-19T22:33:41.269Z,29.20
2023-01-19T22:36:23.664Z,31.98
2023-01-19T22:38:57.447Z,31.60
2023-01-19T22:41:42.298Z,28.45
2023-01-19T22:44:23.432Z,27.55
2023-01-19T22:46:55.155Z,30.73
2023-01-19T22:49:22.273Z,28.40
2023-01-19T22:51:49.315Z,27.70
2023-01-19T22:54:16.362Z,30.92
2023-01-19T22:56:46.021Z,29.92
2023-01-19T22:59:13.036Z,27.83
2023-01-19T23:01:44.484Z,30.58
2023-01-19T23:04:15.726Z,28.30
2023-01-19T23:06:43.153Z,28.20
2023-01-19T23:09:14.591Z,24.45
2023-01-19T23:11:45.058Z,27.48
2023-01-19T23:14:16.849Z,23.02
2023-01-19T23:16:43.935Z,24.55
2023-01-19T23:19:12.922Z,28.20
2023-01-19T23:21:40.680Z,33.15
2023-01-19T23:24:08.355Z,32.72
2023-01-19T23:26:38.403Z,36.88
2023-01-19T23:29:12.549Z,30.23
2023-01-19T23:31:44.189Z,23.80
2023-01-19T23:34:13.831Z,23.75
2023-01-19T23:36:43.789Z,26.60
2023-01-19T23:39:22.182Z,28.65
2023-01-19T23:41:49.834Z,26.88
2023-01-19T23:44:18.038Z,30.98
2023-01-19T23:46:45.838Z,26.27
2023-01-19T23:49:13.647Z,24.38
2023-01-19T23:51:41.412Z,26.52
2023-01-19T23:54:08.734Z,26.67
2023-01-19T23:56:38.130Z,24.42
2023-01-19T23:59:12.155Z,27.02
